Time;durP1;ratioP1;P1;durP2;ratioP2;P2;SDS_P1;SDS_P2;PMS_P1;PMS_P2;Temp;Humidity;BMP_temperature;BMP_pressure;BME280_temperature;BME280_humidity;BME280_pressure;Samples;Min_cycle;Max_cycle;Signal;HPM_P1;HPM_P2
2022/11/25 00:00:46;;;;;;;8.93;4.13;;;;;;;;;;5045467;28;20499;-77
2022/11/25 00:03:12;;;;;;;13.68;3.92;;;;;;;;;;5052853;28;20460;-77
2022/11/25 00:05:38;;;;;;;11.52;3.58;;;;;;;;;;5057421;28;20388;-77
2022/11/25 00:08:04;;;;;;;12.48;4.00;;;;;;;;;;5037666;28;20495;-77
2022/11/25 00:10:31;;;;;;;16.25;4.35;;;;;;;;;;5038447;28;20041;-77
2022/11/25 00:12:57;;;;;;;10.57;3.97;;;;;;;;;;5046942;28;20048;-77
2022/11/25 00:15:23;;;;;;;13.40;4.03;;;;;;;;;;5057794;28;20095;-77
2022/11/25 00:17:49;;;;;;;15.43;4.07;;;;;;;;;;5058236;28;20045;-77
2022/11/25 00:20:15;;;;;;;14.88;3.88;;;;;;;;;;5041941;28;20048;-77
2022/11/25 00:22:41;;;;;;;16.17;4.10;;;;;;;;;;5057997;28;20056;-77
2022/11/25 00:25:07;;;;;;;12.07;3.80;;;;;;;;;;5058788;28;20033;-77
2022/11/25 00:27:33;;;;;;;15.27;3.88;;;;;;;;;;5059023;28;20077;-77
2022/11/25 00:29:59;;;;;;;11.52;3.38;;;;;;;;;;5057861;28;20083;-77
2022/11/25 00:32:25;;;;;;;15.55;3.78;;;;;;;;;;5058333;28;20044;-77
2022/11/25 00:34:51;;;;;;;10.15;3.50;;;;;;;;;;5058755;28;20037;-77
2022/11/25 00:37:17;;;;;;;14.75;4.00;;;;;;;;;;5057845;28;20080;-77
2022/11/25 00:39:43;;;;;;;15.23;4.45;;;;;;;;;;5057881;28;20045;-77
2022/11/25 00:45:00;;;;;;;14.40;4.28;;;;;;;;;;5058690;28;20053;-77
2022/11/25 00:47:26;;;;;;;12.60;4.22;;;;;;;;;;5074525;28;20446;-77
2022/11/25 00:49:53;;;;;;;13.20;3.95;;;;;;;;;;5057656;28;20094;-77
2022/11/25 00:52:23;;;;;;;15.07;3.90;;;;;;;;;;5053819;28;20136;-77
2022/11/25 00:54:49;;;;;;;7.78;3.70;;;;;;;;;;5059024;28;20044;-77
2022/11/25 00:57:16;;;;;;;12.90;3.42;;;;;;;;;;5058641;28;20126;-77
2022/11/25 00:59:42;;;;;;;14.07;3.72;;;;;;;;;;5059344;28;20040;-77
2022/11/25 01:02:09;;;;;;;16.25;4.05;;;;;;;;;;5055797;28;20471;-77
2022/11/25 01:04:35;;;;;;;10.48;3.60;;;;;;;;;;5053650;28;20087;-77
2022/11/25 01:07:02;;;;;;;12.63;3.78;;;;;;;;;;5042036;28;20096;-77
2022/11/25 01:09:28;;;;;;;14.73;4.60;;;;;;;;;;5034962;28;20045;-77
2022/11/25 01:11:54;;;;;;;12.57;3.53;;;;;;;;;;5047728;28;20049;-78
2022/11/25 01:14:21;;;;;;;13.43;3.83;;;;;;;;;;5054523;28;20092;-77
2022/11/25 01:16:47;;;;;;;10.80;4.05;;;;;;;;;;5054889;28;20053;-78
2022/11/25 01:19:14;;;;;;;10.10;4.25;;;;;;;;;;5055199;28;20049;-77
2022/11/25 01:21:40;;;;;;;13.55;4.72;;;;;;;;;;5054101;28;20376;-77
2022/11/25 01:24:07;;;;;;;13.18;4.00;;;;;;;;;;5055549;28;20041;-77
2022/11/25 01:26:33;;;;;;;10.82;3.95;;;;;;;;;;5053373;28;20051;-77
2022/11/25 01:29:01;;;;;;;17.30;4.68;;;;;;;;;;5055392;28;20352;-77
2022/11/25 01:31:28;;;;;;;14.88;4.75;;;;;;;;;;5055466;28;20052;-77
2022/11/25 01:33:58;;;;;;;16.48;4.03;;;;;;;;;;5056024;28;20044;-77
2022/11/25 01:36:25;;;;;;;12.35;3.50;;;;;;;;;;5055297;28;20498;-77
2022/11/25 01:38:52;;;;;;;13.75;3.92;;;;;;;;;;5056067;28;20052;-77
2022/11/25 01:41:19;;;;;;;13.68;3.70;;;;;;;;;;5053927;28;20052;-77
2022/11/25 01:44:05;;;;;;;13.82;4.07;;;;;;;;;;5035120;28;20051;-76
2022/11/25 01:46:39;;;;;;;13.07;3.67;;;;;;;;;;5027827;28;20100;-76
2022/11/25 01:49:06;;;;;;;12.02;3.17;;;;;;;;;;5034754;28;20132;-76
2022/11/25 01:51:35;;;;;;;13.52;4.03;;;;;;;;;;5046869;28;20052;-76
2022/11/25 01:54:03;;;;;;;13.30;4.05;;;;;;;;;;5036296;28;20051;-76
2022/11/25 01:56:31;;;;;;;14.68;3.88;;;;;;;;;;5049746;28;20041;-76
2022/11/25 01:58:57;;;;;;;16.20;4.28;;;;;;;;;;5053714;28;20140;-76
2022/11/25 02:01:23;;;;;;;12.15;4.07;;;;;;;;;;5053719;28;20436;-76
2022/11/25 02:03:52;;;;;;;13.10;3.80;;;;;;;;;;5054046;28;20053;-77
2022/11/25 02:06:23;;;;;;;15.02;4.57;;;;;;;;;;5053551;28;20052;-77
2022/11/25 02:08:54;;;;;;;15.93;4.15;;;;;;;;;;5053549;28;20036;-78
2022/11/25 02:11:21;;;;;;;16.83;4.88;;;;;;;;;;5053153;28;20045;-76
2022/11/25 02:13:49;;;;;;;12.65;4.38;;;;;;;;;;5054097;28;20044;-76
2022/11/25 02:16:15;;;;;;;14.43;4.32;;;;;;;;;;5046039;28;20056;-76
2022/11/25 02:18:41;;;;;;;13.52;4.10;;;;;;;;;;5033765;28;20045;-76
2022/11/25 02:21:08;;;;;;;13.35;4.18;;;;;;;;;;5046653;28;20037;-76
2022/11/25 02:23:46;;;;;;;15.00;3.78;;;;;;;;;;5048227;28;20358;-76
2022/11/25 02:26:12;;;;;;;12.07;4.22;;;;;;;;;;5038339;28;20398;-76
2022/11/25 02:28:39;;;;;;;14.45;4.50;;;;;;;;;;5052620;28;20051;-76
2022/11/25 02:31:06;;;;;;;14.85;3.97;;;;;;;;;;5053075;28;20045;-76
2022/11/25 02:33:32;;;;;;;12.60;3.97;;;;;;;;;;5053335;28;20048;-76
2022/11/25 02:35:59;;;;;;;16.85;4.30;;;;;;;;;;5049220;28;20048;-76
2022/11/25 02:38:30;;;;;;;11.52;4.40;;;;;;;;;;5033963;28;20057;-76
2022/11/25 02:40:59;;;;;;;17.13;4.47;;;;;;;;;;5045574;28;20083;-76
2022/11/25 02:43:26;;;;;;;12.65;4.32;;;;;;;;;;5042841;28;20399;-76
2022/11/25 02:45:55;;;;;;;14.43;4.45;;;;;;;;;;5050141;28;20045;-76
2022/11/25 02:48:22;;;;;;;13.35;4.50;;;;;;;;;;5053120;28;20037;-76
2022/11/25 02:50:48;;;;;;;13.10;4.07;;;;;;;;;;5046003;28;20055;-76
2022/11/25 02:53:15;;;;;;;14.73;4.70;;;;;;;;;;5051306;28;20107;-76
2022/11/25 02:55:41;;;;;;;15.13;4.60;;;;;;;;;;5045601;28;20515;-76
2022/11/25 02:58:07;;;;;;;15.80;5.00;;;;;;;;;;5050517;28;20422;-76
2022/11/25 03:00:33;;;;;;;21.08;5.10;;;;;;;;;;5052685;28;20475;-76
2022/11/25 03:02:59;;;;;;;12.30;4.68;;;;;;;;;;5053110;28;20386;-76
2022/11/25 03:05:25;;;;;;;18.05;4.82;;;;;;;;;;5047164;28;20057;-76
2022/11/25 03:07:52;;;;;;;14.40;4.80;;;;;;;;;;5033488;28;20120;-76
2022/11/25 03:10:18;;;;;;;13.25;4.85;;;;;;;;;;5043130;28;20056;-76
2022/11/25 03:12:44;;;;;;;15.15;4.60;;;;;;;;;;5052759;28;20056;-76
2022/11/25 03:15:10;;;;;;;16.05;5.10;;;;;;;;;;5052580;28;20057;-76
2022/11/25 03:17:36;;;;;;;16.38;4.82;;;;;;;;;;5052842;28;20072;-76
2022/11/25 03:20:03;;;;;;;15.50;4.68;;;;;;;;;;5054793;28;20048;-75
2022/11/25 03:22:29;;;;;;;19.13;5.93;;;;;;;;;;5057309;28;20037;-76
2022/11/25 03:24:55;;;;;;;12.82;5.00;;;;;;;;;;5056899;28;20139;-76
2022/11/25 03:27:21;;;;;;;13.32;4.90;;;;;;;;;;5049288;28;20088;-76
2022/11/25 03:29:48;;;;;;;17.20;5.20;;;;;;;;;;5035812;28;20120;-76
2022/11/25 03:32:14;;;;;;;17.17;5.55;;;;;;;;;;5036655;28;20057;-76
2022/11/25 03:34:40;;;;;;;10.50;4.93;;;;;;;;;;5036322;28;20041;-76
2022/11/25 03:37:06;;;;;;;16.60;5.80;;;;;;;;;;5043416;28;20430;-76
2022/11/25 03:39:32;;;;;;;16.85;5.82;;;;;;;;;;5055752;28;20126;-76
2022/11/25 03:41:58;;;;;;;12.73;5.70;;;;;;;;;;5043897;28;20045;-76
2022/11/25 03:44:24;;;;;;;12.55;5.60;;;;;;;;;;5055027;28;20080;-76
2022/11/25 03:46:50;;;;;;;13.95;5.22;;;;;;;;;;5056334;28;20369;-76
2022/11/25 03:49:16;;;;;;;13.25;5.45;;;;;;;;;;5056464;28;20072;-76
2022/11/25 03:51:42;;;;;;;14.13;5.47;;;;;;;;;;5044626;28;20057;-76
2022/11/25 03:54:08;;;;;;;11.35;5.03;;;;;;;;;;5047613;28;20041;-76
2022/11/25 03:56:34;;;;;;;15.48;5.43;;;;;;;;;;5055799;28;20056;-76
2022/11/25 03:59:00;;;;;;;12.32;5.00;;;;;;;;;;5056201;28;20043;-76
2022/11/25 04:01:26;;;;;;;13.02;5.43;;;;;;;;;;5056424;28;20087;-76
2022/11/25 04:03:52;;;;;;;11.45;4.75;;;;;;;;;;5055987;28;20041;-76
2022/11/25 04:06:20;;;;;;;13.27;5.38;;;;;;;;;;5045582;28;20045;-76
2022/11/25 04:08:47;;;;;;;14.55;4.85;;;;;;;;;;5055497;28;20045;-76
2022/11/25 04:11:13;;;;;;;11.50;4.93;;;;;;;;;;5054464;28;20055;-76
2022/11/25 04:13:39;;;;;;;13.68;5.25;;;;;;;;;;5023427;28;20435;-76
2022/11/25 04:16:05;;;;;;;11.57;5.30;;;;;;;;;;5060359;28;20063;-76
2022/11/25 04:18:31;;;;;;;15.73;5.00;;;;;;;;;;5060036;28;20498;-76
2022/11/25 04:20:57;;;;;;;14.32;5.32;;;;;;;;;;5056535;28;20047;-77
2022/11/25 04:23:23;;;;;;;13.63;5.30;;;;;;;;;;5055558;28;20107;-77
2022/11/25 04:25:50;;;;;;;10.00;5.00;;;;;;;;;;5056033;28;20052;-76
2022/11/25 04:28:17;;;;;;;13.27;5.75;;;;;;;;;;5056089;28;20049;-77
2022/11/25 04:30:43;;;;;;;14.38;6.35;;;;;;;;;;5055814;28;20045;-77
2022/11/25 04:33:09;;;;;;;15.85;5.88;;;;;;;;;;5038279;28;20091;-77
2022/11/25 04:35:35;;;;;;;10.40;5.47;;;;;;;;;;5036004;28;20109;-76
2022/11/25 04:38:01;;;;;;;15.38;5.90;;;;;;;;;;5052120;28;20501;-76
2022/11/25 04:40:27;;;;;;;16.25;6.00;;;;;;;;;;5055738;28;20172;-77
2022/11/25 04:42:53;;;;;;;13.32;5.60;;;;;;;;;;5055551;28;20048;-76
2022/11/25 04:45:19;;;;;;;15.05;6.13;;;;;;;;;;5055301;28;20046;-77
2022/11/25 04:47:45;;;;;;;14.48;6.63;;;;;;;;;;5044316;28;20525;-77
2022/11/25 04:50:17;;;;;;;14.18;6.90;;;;;;;;;;5035820;28;20041;-76
2022/11/25 04:52:43;;;;;;;11.65;6.57;;;;;;;;;;5044592;28;20483;-77
2022/11/25 04:55:09;;;;;;;11.77;7.28;;;;;;;;;;5055053;28;20097;-77
2022/11/25 04:57:35;;;;;;;18.05;7.63;;;;;;;;;;5055340;28;20049;-76
2022/11/25 05:00:02;;;;;;;18.20;7.18;;;;;;;;;;5055700;28;20045;-76
2022/11/25 05:02:28;;;;;;;14.88;7.47;;;;;;;;;;5041049;28;20157;-77
2022/11/25 05:04:55;;;;;;;14.77;6.72;;;;;;;;;;5036291;28;20132;-77
2022/11/25 05:07:22;;;;;;;14.05;7.45;;;;;;;;;;5040048;28;20049;-77
2022/11/25 05:09:49;;;;;;;17.00;8.35;;;;;;;;;;5038786;28;20056;-77
2022/11/25 05:12:19;;;;;;;17.75;8.02;;;;;;;;;;5036843;28;20045;-77
2022/11/25 05:14:45;;;;;;;20.55;8.18;;;;;;;;;;5051729;28;20375;-77
2022/11/25 05:17:16;;;;;;;19.33;7.82;;;;;;;;;;5055755;28;20492;-77
2022/11/25 05:19:42;;;;;;;18.13;7.68;;;;;;;;;;5055323;28;20051;-77
2022/11/25 05:22:12;;;;;;;17.70;7.68;;;;;;;;;;5051597;28;20085;-77
2022/11/25 05:24:38;;;;;;;18.77;7.40;;;;;;;;;;5045077;28;20047;-77
2022/11/25 05:27:04;;;;;;;16.40;8.25;;;;;;;;;;5056146;28;20056;-77
2022/11/25 05:29:30;;;;;;;18.02;7.38;;;;;;;;;;5049965;28;20099;-77
2022/11/25 05:31:56;;;;;;;16.58;7.72;;;;;;;;;;5035720;28;20045;-77
2022/11/25 05:34:22;;;;;;;18.23;7.93;;;;;;;;;;5036822;28;20041;-77
2022/11/25 05:36:50;;;;;;;19.42;7.32;;;;;;;;;;5041274;28;20037;-77
2022/11/25 05:39:16;;;;;;;14.00;6.72;;;;;;;;;;5041564;28;20053;-77
2022/11/25 05:41:42;;;;;;;21.17;7.25;;;;;;;;;;5036511;28;20458;-77
2022/11/25 05:44:08;;;;;;;19.42;7.47;;;;;;;;;;5051088;28;20049;-77
2022/11/25 05:46:34;;;;;;;16.95;7.28;;;;;;;;;;5056734;28;20072;-77
2022/11/25 05:49:00;;;;;;;17.27;7.15;;;;;;;;;;5057707;28;20056;-77
2022/11/25 05:51:27;;;;;;;15.98;7.20;;;;;;;;;;5056648;28;20051;-77
2022/11/25 05:53:53;;;;;;;17.33;6.95;;;;;;;;;;5041349;28;20480;-77
2022/11/25 05:56:20;;;;;;;17.67;6.97;;;;;;;;;;5038229;28;20057;-77
2022/11/25 05:58:46;;;;;;;20.40;6.80;;;;;;;;;;5038318;28;20502;-77
2022/11/25 06:01:13;;;;;;;13.98;6.50;;;;;;;;;;5037481;28;20107;-77
2022/11/25 06:03:39;;;;;;;20.08;7.28;;;;;;;;;;5039338;28;20076;-77
2022/11/25 06:06:06;;;;;;;19.23;6.68;;;;;;;;;;5057390;28;20037;-77
2022/11/25 06:08:33;;;;;;;14.93;6.68;;;;;;;;;;5059118;28;20043;-77
2022/11/25 06:10:59;;;;;;;16.73;6.90;;;;;;;;;;5056804;28;20533;-77
2022/11/25 06:13:25;;;;;;;14.63;6.38;;;;;;;;;;5058602;28;20049;-77
2022/11/25 06:15:51;;;;;;;15.95;6.68;;;;;;;;;;5057379;28;20060;-77
2022/11/25 06:18:18;;;;;;;17.80;6.53;;;;;;;;;;5056477;28;20045;-77
2022/11/25 06:20:44;;;;;;;17.88;6.65;;;;;;;;;;5050154;28;20045;-77
2022/11/25 06:23:10;;;;;;;15.88;6.07;;;;;;;;;;5057236;28;20083;-77
2022/11/25 06:25:36;;;;;;;18.67;6.38;;;;;;;;;;5056180;28;20057;-77
2022/11/25 06:28:02;;;;;;;17.90;6.60;;;;;;;;;;5056355;28;20183;-77
2022/11/25 06:30:28;;;;;;;19.77;6.80;;;;;;;;;;5055491;28;20093;-77
2022/11/25 06:32:55;;;;;;;17.23;6.13;;;;;;;;;;5054542;28;20071;-77
2022/11/25 06:35:21;;;;;;;14.63;6.25;;;;;;;;;;5050170;28;20076;-77
2022/11/25 06:37:47;;;;;;;16.08;7.22;;;;;;;;;;5055439;28;20124;-77
2022/11/25 06:40:13;;;;;;;15.45;6.90;;;;;;;;;;5054733;28;20048;-77
2022/11/25 06:42:42;;;;;;;19.05;6.95;;;;;;;;;;5055026;28;20091;-77
2022/11/25 06:45:08;;;;;;;15.80;6.63;;;;;;;;;;5054722;28;20116;-77
2022/11/25 06:47:34;;;;;;;15.60;6.65;;;;;;;;;;5056556;28;20055;-79
2022/11/25 06:50:01;;;;;;;13.52;6.50;;;;;;;;;;5035972;28;20117;-77
2022/11/25 06:52:29;;;;;;;17.60;7.15;;;;;;;;;;5035446;28;20472;-77
2022/11/25 06:54:55;;;;;;;14.85;6.75;;;;;;;;;;5038923;28;20053;-78
2022/11/25 06:57:21;;;;;;;18.83;6.55;;;;;;;;;;5043625;28;20052;-77
2022/11/25 06:59:47;;;;;;;12.85;6.15;;;;;;;;;;5046550;28;20044;-78
2022/11/25 07:02:14;;;;;;;14.70;6.53;;;;;;;;;;5061023;28;20041;-77
2022/11/25 07:04:42;;;;;;;16.38;6.78;;;;;;;;;;5059178;28;20045;-77
2022/11/25 07:07:08;;;;;;;16.85;6.88;;;;;;;;;;5052381;28;20067;-77
2022/11/25 07:09:34;;;;;;;15.65;6.85;;;;;;;;;;5051098;28;20048;-77
2022/11/25 07:12:04;;;;;;;16.27;7.05;;;;;;;;;;5061620;28;20045;-77
2022/11/25 07:14:30;;;;;;;15.75;6.38;;;;;;;;;;5061972;28;20057;-77
2022/11/25 07:16:56;;;;;;;15.10;6.30;;;;;;;;;;5060360;28;20053;-77
2022/11/25 07:19:22;;;;;;;15.82;7.05;;;;;;;;;;5060008;28;20059;-77
2022/11/25 07:21:48;;;;;;;15.20;6.88;;;;;;;;;;5059528;28;20049;-78
2022/11/25 07:24:15;;;;;;;13.63;7.05;;;;;;;;;;5058505;28;20499;-77
2022/11/25 07:26:42;;;;;;;16.58;7.38;;;;;;;;;;5059193;28;20037;-78
2022/11/25 07:29:13;;;;;;;19.23;7.47;;;;;;;;;;5055334;28;20094;-77
2022/11/25 07:31:41;;;;;;;16.30;6.57;;;;;;;;;;5063399;28;20120;-78
2022/11/25 07:34:09;;;;;;;20.42;7.53;;;;;;;;;;5060376;28;20053;-78
2022/11/25 07:36:35;;;;;;;17.02;6.78;;;;;;;;;;5057670;28;20080;-78
2022/11/25 07:39:03;;;;;;;18.98;7.53;;;;;;;;;;5056669;28;20537;-78
2022/11/25 07:41:30;;;;;;;13.57;6.82;;;;;;;;;;5040396;28;20048;-77
2022/11/25 07:44:00;;;;;;;15.57;7.32;;;;;;;;;;5041353;28;20051;-77
2022/11/25 07:46:31;;;;;;;14.23;6.70;;;;;;;;;;5042862;28;20064;-77
2022/11/25 07:48:58;;;;;;;17.00;6.65;;;;;;;;;;5057386;28;20570;-76
2022/11/25 07:51:24;;;;;;;13.57;6.65;;;;;;;;;;5057151;28;20045;-77
2022/11/25 07:53:51;;;;;;;16.70;7.32;;;;;;;;;;5056976;28;20052;-77
2022/11/25 07:56:17;;;;;;;14.73;7.20;;;;;;;;;;5056031;28;20044;-77
2022/11/25 07:58:44;;;;;;;16.73;7.10;;;;;;;;;;5057092;28;20082;-77
2022/11/25 08:01:11;;;;;;;16.45;8.00;;;;;;;;;;5057544;28;20045;-77
2022/11/25 08:03:38;;;;;;;17.98;7.90;;;;;;;;;;5056462;28;20514;-77
2022/11/25 08:06:05;;;;;;;16.15;8.10;;;;;;;;;;5047963;28;20474;-77
2022/11/25 08:08:31;;;;;;;15.52;7.90;;;;;;;;;;5047684;28;20042;-77
2022/11/25 08:10:57;;;;;;;19.38;7.30;;;;;;;;;;5047517;28;20437;-77
2022/11/25 08:13:23;;;;;;;17.55;7.88;;;;;;;;;;5050956;28;20049;-77
2022/11/25 08:15:49;;;;;;;17.88;7.75;;;;;;;;;;5037233;28;20065;-77
2022/11/25 08:18:16;;;;;;;18.00;7.78;;;;;;;;;;5040155;28;20049;-78
2022/11/25 08:20:42;;;;;;;15.55;7.38;;;;;;;;;;5056352;28;20041;-78
2022/11/25 08:23:08;;;;;;;16.83;7.63;;;;;;;;;;5056321;28;20510;-77
2022/11/25 08:25:39;;;;;;;13.80;7.03;;;;;;;;;;5055849;28;20405;-77
2022/11/25 08:28:05;;;;;;;16.70;7.00;;;;;;;;;;5057141;28;20052;-77
2022/11/25 08:30:31;;;;;;;16.92;7.10;;;;;;;;;;5055939;28;20044;-77
2022/11/25 08:32:57;;;;;;;12.80;7.15;;;;;;;;;;5056969;28;20044;-79
2022/11/25 08:35:23;;;;;;;14.18;7.43;;;;;;;;;;5053873;28;20383;-78
2022/11/25 08:37:49;;;;;;;13.93;6.43;;;;;;;;;;5054319;28;20041;-77
2022/11/25 08:40:16;;;;;;;15.32;6.80;;;;;;;;;;5050623;28;20053;-78
2022/11/25 08:42:42;;;;;;;13.13;6.95;;;;;;;;;;5036069;28;20038;-78
2022/11/25 08:45:09;;;;;;;14.63;7.00;;;;;;;;;;5036311;28;20053;-78
2022/11/25 08:47:35;;;;;;;13.30;6.90;;;;;;;;;;5036212;28;20053;-79
2022/11/25 08:50:03;;;;;;;12.60;7.53;;;;;;;;;;5051119;28;20103;-78
2022/11/25 08:52:29;;;;;;;19.13;6.85;;;;;;;;;;5037877;28;20049;-78
2022/11/25 08:54:55;;;;;;;13.93;6.38;;;;;;;;;;5055597;28;20048;-78
2022/11/25 08:57:21;;;;;;;10.63;6.35;;;;;;;;;;5055073;28;20049;-78
2022/11/25 08:59:47;;;;;;;11.10;5.53;;;;;;;;;;5056348;28;20049;-77
2022/11/25 09:02:15;;;;;;;10.50;5.68;;;;;;;;;;5058966;28;20048;-81
2022/11/25 09:04:41;;;;;;;15.13;6.78;;;;;;;;;;5078486;28;20056;-80
2022/11/25 09:07:07;;;;;;;10.73;6.05;;;;;;;;;;5063096;28;20045;-79
2022/11/25 09:09:33;;;;;;;11.05;6.00;;;;;;;;;;5054903;28;20052;-80
2022/11/25 09:11:59;;;;;;;10.43;5.93;;;;;;;;;;5045114;28;20041;-80
2022/11/25 09:14:26;;;;;;;10.93;5.57;;;;;;;;;;5048576;28;20067;-80
2022/11/25 09:16:52;;;;;;;13.88;5.63;;;;;;;;;;5059784;28;20049;-80
2022/11/25 09:19:19;;;;;;;14.40;5.97;;;;;;;;;;5053899;28;20041;-79
2022/11/25 09:21:46;;;;;;;10.15;5.57;;;;;;;;;;5041919;28;20175;-81
2022/11/25 09:24:12;;;;;;;11.27;5.68;;;;;;;;;;5021193;28;20049;-80
2022/11/25 09:26:39;;;;;;;11.75;5.88;;;;;;;;;;5051524;28;20124;-79
2022/11/25 09:29:06;;;;;;;9.18;5.47;;;;;;;;;;5054721;28;20045;-78
2022/11/25 09:31:32;;;;;;;15.85;6.15;;;;;;;;;;5053755;28;20128;-78
2022/11/25 09:33:59;;;;;;;8.57;5.97;;;;;;;;;;5049725;28;20117;-78
2022/11/25 09:36:25;;;;;;;10.32;5.20;;;;;;;;;;5035672;28;20088;-78
2022/11/25 09:38:51;;;;;;;9.40;4.93;;;;;;;;;;5035076;28;20140;-78
2022/11/25 09:47:40;;;;;;;13.48;5.88;;;;;;;;;;5044275;28;20045;-79
2022/11/25 09:50:30;;;;;;;10.07;5.03;;;;;;;;;;5054293;28;20538;-79
2022/11/25 09:52:56;;;;;;;13.55;5.63;;;;;;;;;;5054572;28;20438;-79
2022/11/25 09:55:24;;;;;;;11.02;4.85;;;;;;;;;;5053652;28;20053;-78
2022/11/25 09:58:05;;;;;;;11.43;4.60;;;;;;;;;;5053829;28;20044;-78
2022/11/25 10:00:41;;;;;;;14.10;4.60;;;;;;;;;;5033861;28;20042;-78
2022/11/25 10:03:25;;;;;;;9.15;5.07;;;;;;;;;;5035083;28;20045;-78
2022/11/25 10:05:54;;;;;;;12.15;4.80;;;;;;;;;;5053736;28;20480;-78
2022/11/25 10:08:23;;;;;;;11.32;5.32;;;;;;;;;;5036129;28;20045;-78
2022/11/25 10:10:52;;;;;;;9.90;4.50;;;;;;;;;;5053487;28;20049;-78
2022/11/25 10:13:31;;;;;;;10.98;5.10;;;;;;;;;;5053284;28;20051;-78
2022/11/25 10:15:59;;;;;;;12.80;5.25;;;;;;;;;;5053866;28;20502;-78
2022/11/25 10:18:29;;;;;;;10.55;5.60;;;;;;;;;;5052891;28;20110;-78
2022/11/25 10:20:55;;;;;;;10.77;4.90;;;;;;;;;;5053089;28;20060;-78
2022/11/25 10:23:23;;;;;;;12.82;5.18;;;;;;;;;;5054010;28;20037;-78
2022/11/25 10:25:52;;;;;;;8.20;4.00;;;;;;;;;;5053897;28;20131;-78
2022/11/25 10:28:25;;;;;;;9.63;4.38;;;;;;;;;;5053935;28;20072;-78
2022/11/25 10:31:05;;;;;;;9.82;5.22;;;;;;;;;;5053920;28;20045;-78
2022/11/25 10:33:48;;;;;;;9.95;4.65;;;;;;;;;;5042252;28;20076;-78
2022/11/25 10:36:34;;;;;;;10.85;5.13;;;;;;;;;;5034055;28;20053;-78
2022/11/25 10:39:00;;;;;;;12.77;4.80;;;;;;;;;;5034192;28;20088;-78
2022/11/25 10:41:30;;;;;;;11.45;4.20;;;;;;;;;;5034640;28;20092;-81
2022/11/25 10:43:56;;;;;;;11.50;4.32;;;;;;;;;;5035764;28;20076;-80
2022/11/25 10:46:37;;;;;;;12.60;4.95;;;;;;;;;;5040539;28;20414;-80
2022/11/25 10:49:26;;;;;;;10.30;4.13;;;;;;;;;;5056594;28;20522;-79
2022/11/25 10:51:53;;;;;;;9.07;4.75;;;;;;;;;;5060586;28;20037;-80
2022/11/25 10:54:23;;;;;;;9.35;4.53;;;;;;;;;;5062491;28;20115;-80
2022/11/25 10:56:49;;;;;;;13.50;4.88;;;;;;;;;;5059104;28;20037;-79
2022/11/25 10:59:21;;;;;;;13.63;4.72;;;;;;;;;;5053805;28;20051;-80
2022/11/25 11:01:47;;;;;;;9.02;4.68;;;;;;;;;;5042093;28;20069;-84
2022/11/25 11:04:16;;;;;;;9.45;4.05;;;;;;;;;;5056069;28;20214;-79
2022/11/25 11:06:43;;;;;;;10.30;4.38;;;;;;;;;;5054018;28;20072;-80
2022/11/25 11:09:28;;;;;;;10.57;4.10;;;;;;;;;;5053889;28;20045;-79
2022/11/25 11:11:54;;;;;;;9.88;4.47;;;;;;;;;;5046052;28;20084;-79
2022/11/25 11:14:20;;;;;;;10.38;4.10;;;;;;;;;;5037574;28;20046;-79
2022/11/25 11:16:53;;;;;;;11.82;4.28;;;;;;;;;;5038294;28;20057;-79
2022/11/25 11:19:21;;;;;;;11.73;4.00;;;;;;;;;;5039651;28;20041;-79
2022/11/25 11:21:47;;;;;;;10.27;4.32;;;;;;;;;;5051777;28;20041;-79
2022/11/25 11:24:34;;;;;;;14.27;4.53;;;;;;;;;;5055212;28;20041;-79
2022/11/25 11:27:04;;;;;;;11.50;4.32;;;;;;;;;;5033679;28;20041;-79
2022/11/25 11:29:30;;;;;;;14.05;4.05;;;;;;;;;;5032565;28;20502;-79
2022/11/25 11:32:01;;;;;;;6.78;3.33;;;;;;;;;;5033205;28;20049;-79
2022/11/25 11:34:27;;;;;;;11.13;3.88;;;;;;;;;;5032755;28;20132;-79
2022/11/25 11:37:02;;;;;;;9.75;4.07;;;;;;;;;;5033505;28;20476;-79
2022/11/25 11:39:28;;;;;;;10.77;3.80;;;;;;;;;;5047943;28;20545;-79
2022/11/25 11:42:13;;;;;;;15.65;4.72;;;;;;;;;;5046519;28;20468;-78
2022/11/25 11:44:45;;;;;;;10.27;3.33;;;;;;;;;;5038467;28;20391;-81
2022/11/25 11:47:11;;;;;;;11.32;3.53;;;;;;;;;;5059853;28;20041;-81
2022/11/25 11:49:46;;;;;;;12.40;3.90;;;;;;;;;;5042783;28;20119;-80
2022/11/25 11:52:48;;;;;;;16.90;4.20;;;;;;;;;;5060211;28;20069;-79
2022/11/25 11:55:26;;;;;;;15.15;3.97;;;;;;;;;;5001190;28;20127;-80
2022/11/25 11:58:14;;;;;;;13.20;4.10;;;;;;;;;;4998085;28;20054;-79
2022/11/25 12:00:46;;;;;;;12.45;3.80;;;;;;;;;;4982277;28;20047;-80
2022/11/25 12:03:18;;;;;;;12.57;3.65;;;;;;;;;;4981867;28;20503;-80
2022/11/25 12:05:44;;;;;;;13.90;4.18;;;;;;;;;;4998254;28;20050;-80
2022/11/25 12:08:13;;;;;;;13.23;3.63;;;;;;;;;;4997012;28;20046;-79
2022/11/25 12:10:41;;;;;;;12.23;3.45;;;;;;;;;;5008727;28;20090;-79
2022/11/25 12:13:19;;;;;;;11.60;3.55;;;;;;;;;;5016957;28;20120;-79
2022/11/25 12:15:45;;;;;;;13.77;3.80;;;;;;;;;;5016574;28;20127;-79
2022/11/25 12:18:14;;;;;;;16.58;3.90;;;;;;;;;;5016716;28;20049;-79
2022/11/25 12:20:45;;;;;;;11.82;3.33;;;;;;;;;;5017412;28;20081;-79
2022/11/25 12:23:15;;;;;;;11.93;3.53;;;;;;;;;;5016729;28;20085;-79
2022/11/25 12:25:42;;;;;;;11.68;3.25;;;;;;;;;;4975524;28;20535;-79
2022/11/25 12:28:08;;;;;;;10.63;3.30;;;;;;;;;;5003357;28;20053;-79
2022/11/25 12:30:41;;;;;;;12.68;3.20;;;;;;;;;;5039802;28;20045;-79
2022/11/25 12:33:16;;;;;;;14.10;3.60;;;;;;;;;;5039951;28;20057;-79
2022/11/25 12:35:51;;;;;;;12.18;3.67;;;;;;;;;;5038432;28;20056;-79
2022/11/25 12:38:23;;;;;;;12.93;3.50;;;;;;;;;;5043360;28;20045;-79
2022/11/25 12:40:55;;;;;;;11.02;3.35;;;;;;;;;;5056872;28;20574;-79
2022/11/25 12:43:26;;;;;;;12.57;3.58;;;;;;;;;;5060218;28;20045;-79
2022/11/25 12:46:10;;;;;;;12.68;3.35;;;;;;;;;;5060133;28;20045;-80
2022/11/25 12:48:39;;;;;;;13.50;3.25;;;;;;;;;;5059984;28;20056;-80
2022/11/25 12:51:29;;;;;;;12.75;4.25;;;;;;;;;;5056474;28;20426;-81
2022/11/25 12:54:01;;;;;;;10.88;3.83;;;;;;;;;;5065144;28;20049;-81
2022/11/25 12:56:33;;;;;;;12.95;3.97;;;;;;;;;;5047884;28;20044;-81
2022/11/25 12:59:18;;;;;;;15.88;3.92;;;;;;;;;;5060781;28;20049;-81
2022/11/25 13:02:10;;;;;;;14.30;3.80;;;;;;;;;;5042014;28;20049;-81
2022/11/25 13:04:55;;;;;;;12.40;3.97;;;;;;;;;;5040382;28;20110;-81
2022/11/25 13:07:21;;;;;;;12.70;3.70;;;;;;;;;;5041965;28;20069;-81
2022/11/25 13:10:02;;;;;;;11.43;3.90;;;;;;;;;;5046518;28;20423;-81
2022/11/25 13:12:32;;;;;;;12.38;3.38;;;;;;;;;;5052468;28;20045;-81
2022/11/25 13:14:58;;;;;;;13.50;3.72;;;;;;;;;;5042069;28;20056;-80
2022/11/25 13:17:24;;;;;;;14.27;3.58;;;;;;;;;;5042038;28;20053;-80
2022/11/25 13:20:10;;;;;;;10.27;3.00;;;;;;;;;;5042059;28;20045;-80
2022/11/25 13:22:36;;;;;;;11.40;3.83;;;;;;;;;;5040515;28;20041;-80
2022/11/25 13:25:02;;;;;;;13.05;3.17;;;;;;;;;;5042440;28;20045;-80
2022/11/25 13:27:32;;;;;;;13.82;3.38;;;;;;;;;;5042242;28;20045;-80
2022/11/25 13:29:58;;;;;;;11.95;3.53;;;;;;;;;;5046975;28;20139;-80
2022/11/25 13:32:30;;;;;;;10.38;2.92;;;;;;;;;;5046629;28;20041;-81
2022/11/25 13:35:27;;;;;;;9.13;3.13;;;;;;;;;;5043939;28;20103;-81
2022/11/25 13:37:53;;;;;;;12.48;3.47;;;;;;;;;;5057351;28;20526;-80
2022/11/25 13:40:19;;;;;;;12.95;3.65;;;;;;;;;;5053947;28;20040;-81
2022/11/25 13:42:46;;;;;;;14.85;3.88;;;;;;;;;;5046216;28;20053;-81
2022/11/25 13:45:25;;;;;;;14.80;4.35;;;;;;;;;;5042102;28;20044;-81
2022/11/25 13:47:52;;;;;;;12.27;3.40;;;;;;;;;;5057693;28;20052;-81
2022/11/25 13:50:23;;;;;;;11.30;2.92;;;;;;;;;;5067261;28;20385;-81
2022/11/25 13:53:04;;;;;;;11.55;3.15;;;;;;;;;;5062587;28;20078;-81
2022/11/25 13:55:33;;;;;;;15.43;3.40;;;;;;;;;;5044674;28;20064;-81
2022/11/25 13:58:19;;;;;;;17.55;3.40;;;;;;;;;;5057396;28;20047;-81
2022/11/25 14:00:45;;;;;;;15.02;3.72;;;;;;;;;;5052282;28;20045;-81
2022/11/25 14:03:20;;;;;;;9.75;3.80;;;;;;;;;;5048365;28;20523;-81
2022/11/25 14:06:04;;;;;;;15.20;3.85;;;;;;;;;;5058851;28;20091;-80
2022/11/25 14:08:49;;;;;;;12.75;4.30;;;;;;;;;;5062403;28;20451;-80
2022/11/25 14:11:18;;;;;;;13.90;3.65;;;;;;;;;;5064393;28;20045;-81
2022/11/25 14:13:44;;;;;;;13.40;4.10;;;;;;;;;;5053426;28;20041;-81
2022/11/25 14:16:10;;;;;;;11.45;3.50;;;;;;;;;;5065310;28;20526;-81
2022/11/25 14:18:55;;;;;;;14.38;4.03;;;;;;;;;;5062790;28;20072;-81
2022/11/25 14:21:31;;;;;;;15.93;3.85;;;;;;;;;;5050964;28;20044;-81
2022/11/25 14:23:57;;;;;;;13.60;3.30;;;;;;;;;;5059042;28;20494;-82
2022/11/25 14:26:27;;;;;;;13.60;5.28;;;;;;;;;;5048873;28;20045;-81
2022/11/25 14:29:05;;;;;;;12.18;4.07;;;;;;;;;;5038930;28;20076;-81
2022/11/25 14:31:37;;;;;;;9.00;3.33;;;;;;;;;;5040309;28;20045;-81
2022/11/25 14:34:09;;;;;;;13.48;3.53;;;;;;;;;;5022191;28;20124;-81
2022/11/25 14:36:41;;;;;;;15.65;4.70;;;;;;;;;;5042802;28;20045;-81
2022/11/25 14:39:14;;;;;;;13.45;4.05;;;;;;;;;;5054480;28;20079;-81
2022/11/25 14:41:43;;;;;;;14.30;3.67;;;;;;;;;;5059501;28;20080;-81
2022/11/25 14:44:16;;;;;;;12.80;3.20;;;;;;;;;;5059039;28;20041;-81
2022/11/25 14:46:52;;;;;;;12.32;3.40;;;;;;;;;;5058468;28;20049;-81
2022/11/25 14:49:18;;;;;;;;;;;;;;;;;;5057624;28;20044;-81